createdAt,value
2022-11-28T00:02:59.294Z,121.20
2022-11-28T00:08:00.554Z,137.60
2022-11-28T00:13:06.604Z,142.50
2022-11-28T00:18:07.807Z,138.00
2022-11-28T00:23:08.903Z,127.30
2022-11-28T00:28:09.956Z,141.20
2022-11-28T00:33:11.243Z,165.00
2022-11-28T00:38:12.405Z,136.80
2022-11-28T00:43:13.570Z,127.00
2022-11-28T00:48:20.360Z,124.40
2022-11-28T00:53:21.430Z,128.90
2022-11-28T00:58:22.504Z,129.40
2022-11-28T01:03:24.412Z,114.70
2022-11-28T01:08:27.153Z,114.30
2022-11-28T01:13:28.414Z,119.70
2022-11-28T01:18:29.478Z,115.30
2022-11-28T01:23:30.629Z,98.90
2022-11-28T01:28:31.822Z,148.40
2022-11-28T01:33:33.674Z,148.40
2022-11-28T01:38:34.931Z,137.70
2022-11-28T01:43:36.608Z,140.20
2022-11-28T01:48:41.455Z,143.80
2022-11-28T01:53:45.300Z,131.60
2022-11-28T01:58:51.687Z,139.00
2022-11-28T02:03:54.965Z,130.40
2022-11-28T02:08:56.230Z,125.50
2022-11-28T02:14:35.482Z,116.00
2022-11-28T02:20:07.653Z,123.90
2022-11-28T02:25:35.089Z,122.90
2022-11-28T02:30:56.488Z,122.40
2022-11-28T02:36:12.752Z,137.60
2022-11-28T02:41:59.220Z,122.80
2022-11-28T02:47:23.834Z,116.00
2022-11-28T02:52:32.285Z,121.10
2022-11-28T02:57:45.915Z,94.70
2022-11-28T03:02:53.020Z,90.00
2022-11-28T03:08:24.487Z,84.70
2022-11-28T03:13:25.485Z,92.00
2022-11-28T03:18:35.411Z,94.90
2022-11-28T03:23:51.723Z,89.30
2022-11-28T03:29:19.130Z,94.10
2022-11-28T03:34:24.301Z,93.20
2022-11-28T03:39:33.357Z,103.40
2022-11-28T03:44:44.790Z,97.30
2022-11-28T03:49:52.431Z,92.70
2022-11-28T03:55:02.685Z,103.10
2022-11-28T04:00:07.533Z,103.30
2022-11-28T04:06:12.998Z,112.80
2022-11-28T04:11:22.797Z,126.30
2022-11-28T04:16:59.438Z,113.60
2022-11-28T04:22:20.278Z,108.00
2022-11-28T04:27:28.086Z,99.40
2022-11-28T04:32:32.326Z,93.30
2022-11-28T04:37:37.897Z,92.40
2022-11-28T04:42:46.568Z,85.10
2022-11-28T04:47:51.683Z,92.50
2022-11-28T04:53:03.293Z,86.90
2022-11-28T04:58:22.762Z,76.40
2022-11-28T05:03:27.834Z,93.90
2022-11-28T05:08:28.967Z,92.20
2022-11-28T05:13:30.163Z,98.10
2022-11-28T05:18:31.413Z,114.50
2022-11-28T05:23:32.469Z,95.80
2022-11-28T05:28:33.628Z,96.50
2022-11-28T05:33:34.791Z,91.60
2022-11-28T05:38:36.466Z,87.60
2022-11-28T05:43:37.598Z,94.10
2022-11-28T05:48:38.775Z,87.10
2022-11-28T05:53:39.945Z,90.50
2022-11-28T05:58:41.922Z,88.10
2022-11-28T06:03:43.588Z,92.20
2022-11-28T06:08:46.393Z,86.60
2022-11-28T06:13:48.890Z,95.20
2022-11-28T06:18:55.070Z,91.10
2022-11-28T06:23:57.596Z,92.40
2022-11-28T06:28:58.720Z,96.00
2022-11-28T06:33:59.825Z,94.30
2022-11-28T06:39:00.939Z,93.70
2022-11-28T06:44:02.097Z,101.20
2022-11-28T06:49:03.773Z,100.70
2022-11-28T06:54:05.595Z,104.50
2022-11-28T06:59:07.220Z,101.60
2022-11-28T07:04:09.616Z,102.10
2022-11-28T07:09:10.973Z,109.10
2022-11-28T07:14:12.023Z,104.70
2022-11-28T07:19:13.332Z,105.90
2022-11-28T07:24:14.482Z,108.60
2022-11-28T07:29:17.686Z,101.00
2022-11-28T07:34:18.787Z,93.00
2022-11-28T07:39:19.886Z,96.00
2022-11-28T07:44:21.001Z,96.20
2022-11-28T07:49:22.098Z,92.50
2022-11-28T07:54:23.362Z,116.10
2022-11-28T07:59:24.520Z,105.30
2022-11-28T08:04:25.741Z,92.70
2022-11-28T08:09:27.078Z,81.00
2022-11-28T08:14:28.149Z,94.40
2022-11-28T08:19:33.771Z,100.60
2022-11-28T08:24:36.571Z,91.80
2022-11-28T08:29:37.834Z,93.00
2022-11-28T08:34:39.142Z,96.40
2022-11-28T08:39:40.755Z,101.20
2022-11-28T08:44:42.030Z,85.20
2022-11-28T08:49:45.830Z,72.60
2022-11-28T08:54:47.224Z,82.80
2022-11-28T08:59:48.380Z,79.70
2022-11-28T09:04:49.436Z,85.10
2022-11-28T09:09:50.602Z,90.60
2022-11-28T09:14:51.762Z,83.90
2022-11-28T09:19:53.022Z,75.80
2022-11-28T09:24:54.085Z,75.40
2022-11-28T09:29:55.137Z,65.00
2022-11-28T09:34:56.607Z,58.20
2022-11-28T09:40:12.588Z,66.10
2022-11-28T09:45:21.885Z,72.70
2022-11-28T09:50:35.026Z,63.10
2022-11-28T09:55:59.622Z,63.30
2022-11-28T10:01:33.753Z,62.80
2022-11-28T10:06:48.229Z,80.70
2022-11-28T10:11:58.807Z,135.90
2022-11-28T10:17:23.620Z,69.80
2022-11-28T10:22:51.407Z,92.80
2022-11-28T10:27:53.829Z,67.70
2022-11-28T10:32:55.056Z,63.10
2022-11-28T10:37:56.320Z,56.20
2022-11-28T10:43:28.517Z,47.50
2022-11-28T10:48:44.958Z,57.90
2022-11-28T10:54:16.292Z,61.40
2022-11-28T10:59:20.116Z,55.10
2022-11-28T11:04:26.195Z,51.80
2022-11-28T11:09:27.352Z,49.80
2022-11-28T11:14:41.116Z,51.40
2022-11-28T11:19:42.450Z,49.90
2022-11-28T11:24:44.658Z,60.20
2022-11-28T11:29:49.256Z,52.30
2022-11-28T11:34:54.763Z,53.90
2022-11-28T11:39:55.895Z,53.90
2022-11-28T11:45:23.607Z,51.80
2022-11-28T11:50:28.044Z,51.90
2022-11-28T11:55:31.456Z,67.10
2022-11-28T12:00:38.363Z,48.50
2022-11-28T12:06:13.259Z,46.10
2022-11-28T12:11:36.416Z,42.20
2022-11-28T12:17:25.576Z,41.00
2022-11-28T12:22:54.276Z,56.50
2022-11-28T12:28:34.343Z,61.90
2022-11-28T12:33:57.189Z,51.70
2022-11-28T12:39:10.416Z,53.80
2022-11-28T12:44:53.702Z,52.90
2022-11-28T12:50:36.749Z,39.60
2022-11-28T12:55:56.031Z,45.30
2022-11-28T13:01:28.321Z,50.00
2022-11-28T13:06:32.660Z,54.20
2022-11-28T13:11:59.871Z,60.50
2022-11-28T13:17:35.294Z,63.10
2022-11-28T13:22:49.287Z,69.20
2022-11-28T13:28:02.598Z,65.90
2022-11-28T13:33:37.448Z,65.30
2022-11-28T13:39:09.571Z,77.90
2022-11-28T13:44:22.017Z,71.20
2022-11-28T13:49:27.215Z,77.30
2022-11-28T13:54:31.144Z,70.60
2022-11-28T13:59:33.836Z,69.50
2022-11-28T14:04:43.182Z,74.60
2022-11-28T14:10:23.583Z,69.50
2022-11-28T14:16:02.765Z,65.50
2022-11-28T14:21:23.645Z,72.80
2022-11-28T14:26:38.021Z,82.10
2022-11-28T14:32:21.639Z,81.50
2022-11-28T14:37:20.276Z,77.10
2022-11-28T14:48:17.608Z,91.60
2022-11-28T14:53:34.307Z,91.50
2022-11-28T14:58:35.674Z,104.50
2022-11-28T15:03:58.645Z,103.50
2022-11-28T15:09:20.693Z,105.80
2022-11-28T15:14:24.893Z,93.50
2022-11-28T15:19:32.846Z,105.10
2022-11-28T15:24:36.921Z,99.60
2022-11-28T15:29:38.138Z,107.30
2022-11-28T15:34:40.131Z,107.60
2022-11-28T15:39:44.459Z,88.90
2022-11-28T15:44:56.158Z,93.40
2022-11-28T15:50:19.439Z,88.30
2022-11-28T15:55:21.108Z,81.00
2022-11-28T16:00:24.985Z,89.50
2022-11-28T16:05:27.119Z,90.80
2022-11-28T16:10:34.223Z,79.30
2022-11-28T16:15:36.302Z,86.10
2022-11-28T16:20:37.565Z,101.40
2022-11-28T16:25:38.793Z,109.60
2022-11-28T16:30:47.973Z,114.90
2022-11-28T16:35:49.341Z,170.20
2022-11-28T16:40:58.088Z,146.20
2022-11-28T16:46:01.498Z,138.60
2022-11-28T16:51:12.007Z,117.80
2022-11-28T16:56:31.366Z,101.60
2022-11-28T17:01:33.479Z,126.30
2022-11-28T17:06:38.546Z,151.20
2022-11-28T17:11:44.616Z,151.20
2022-11-28T17:16:45.967Z,124.20
2022-11-28T17:21:53.503Z,108.40
2022-11-28T17:26:54.695Z,103.20
2022-11-28T17:31:58.212Z,94.70
2022-11-28T17:37:01.100Z,82.10
2022-11-28T17:42:03.917Z,83.20
2022-11-28T17:47:05.385Z,86.10
2022-11-28T17:52:07.024Z,78.80
2022-11-28T17:57:08.836Z,77.50
2022-11-28T18:02:10.437Z,72.30
2022-11-28T18:07:12.028Z,81.80
2022-11-28T18:12:13.646Z,84.00
2022-11-28T18:17:14.743Z,84.20
2022-11-28T18:22:16.689Z,82.10
2022-11-28T18:27:17.848Z,94.70
2022-11-28T18:32:19.173Z,87.60
2022-11-28T18:37:20.479Z,85.00
2022-11-28T18:42:21.844Z,84.20
2022-11-28T18:47:25.561Z,77.40
2022-11-28T18:52:27.434Z,97.20
2022-11-28T18:57:32.185Z,96.40
2022-11-28T19:02:33.464Z,94.60
2022-11-28T19:07:34.736Z,98.00
2022-11-28T19:12:36.480Z,96.20
2022-11-28T19:17:37.626Z,93.30
2022-11-28T19:22:38.737Z,89.70
2022-11-28T19:27:39.863Z,90.10
2022-11-28T19:32:41.023Z,88.20
2022-11-28T19:37:42.900Z,93.60
2022-11-28T19:42:44.057Z,101.40
2022-11-28T19:47:47.986Z,101.50
2022-11-28T19:52:49.192Z,102.90
2022-11-28T19:57:50.408Z,125.90
2022-11-28T20:02:51.677Z,141.20
2022-11-28T20:07:58.194Z,126.90
2022-11-28T20:12:59.730Z,119.80
2022-11-28T20:18:00.870Z,137.30
2022-11-28T20:23:02.049Z,140.40
2022-11-28T20:28:03.242Z,144.10
2022-11-28T20:33:04.365Z,127.90
2022-11-28T20:38:05.734Z,126.40
2022-11-28T20:43:06.891Z,122.30
2022-11-28T20:48:08.054Z,128.00
2022-11-28T20:53:09.116Z,128.30
2022-11-28T20:58:20.182Z,121.40
2022-11-28T21:03:21.467Z,122.40
2022-11-28T21:08:22.583Z,109.10
2022-11-28T21:13:23.894Z,121.50
2022-11-28T21:18:24.977Z,131.50
2022-11-28T21:23:26.218Z,117.10
2022-11-28T21:28:27.374Z,129.40
2022-11-28T21:33:28.534Z,126.10
2022-11-28T21:38:30.411Z,142.30
2022-11-28T21:43:31.779Z,129.90
2022-11-28T21:48:44.610Z,127.70
2022-11-28T21:53:45.862Z,126.80
2022-11-28T21:58:47.593Z,122.10
2022-11-28T22:03:49.143Z,118.70
2022-11-28T22:08:52.223Z,113.70
2022-11-28T22:13:58.607Z,110.80
2022-11-28T22:19:00.590Z,102.90
2022-11-28T22:24:01.951Z,99.90
2022-11-28T22:29:03.994Z,107.90
2022-11-28T22:34:08.785Z,103.50
2022-11-28T22:39:10.927Z,102.50
2022-11-28T22:44:12.198Z,113.40
2022-11-28T22:49:13.574Z,121.90
2022-11-28T22:54:14.952Z,115.50
2022-11-28T22:59:16.733Z,113.20
2022-11-28T23:04:18.401Z,116.90
2022-11-28T23:09:20.156Z,115.90
2022-11-28T23:14:21.682Z,128.50
2022-11-28T23:19:22.844Z,137.40
2022-11-28T23:24:24.171Z,130.80
2022-11-28T23:29:26.764Z,126.50
2022-11-28T23:34:28.027Z,124.80
2022-11-28T23:39:29.153Z,127.20
2022-11-28T23:44:38.027Z,116.60
2022-11-28T23:49:39.187Z,120.50
2022-11-28T23:54:40.473Z,111.80
2022-11-28T23:59:41.715Z,119.00
